sensor_id;sensor_type;location;lat;lon;timestamp;pressure;altitude;pressure_sealevel;temperature;humidity
30897;BME280;64229;52.246;21.054;2023-11-21T00:01:56;99861.41;;;-0.53;100.00
30897;BME280;64229;52.246;21.054;2023-11-21T00:04:22;99889.44;;;-0.41;100.00
30897;BME280;64229;52.246;21.054;2023-11-21T00:06:47;99888.84;;;-0.56;100.00
30897;BME280;64229;52.246;21.054;2023-11-21T00:09:13;99892.06;;;-0.54;100.00
30897;BME280;64229;52.246;21.054;2023-11-21T00:11:41;99895.47;;;-0.53;100.00
30897;BME280;64229;52.246;21.054;2023-11-21T00:14:06;99892.25;;;-0.55;100.00
30897;BME280;64229;52.246;21.054;2023-11-21T00:16:32;99885.81;;;-0.60;100.00
30897;BME280;64229;52.246;21.054;2023-11-21T00:18:57;99906.16;;;-0.55;100.00
30897;BME280;64229;52.246;21.054;2023-11-21T00:21:22;99903.75;;;-0.50;100.00
30897;BME280;64229;52.246;21.054;2023-11-21T00:23:48;99900.53;;;-0.45;100.00
30897;BME280;64229;52.246;21.054;2023-11-21T00:26:13;99913.44;;;-0.50;100.00
30897;BME280;64229;52.246;21.054;2023-11-21T00:28:39;99910.81;;;-0.50;100.00
30897;BME280;64229;52.246;21.054;2023-11-21T00:31:05;99916.44;;;-0.53;100.00
30897;BME280;64229;52.246;21.054;2023-11-21T00:33:30;99919.09;;;-0.60;100.00
30897;BME280;64229;52.246;21.054;2023-11-21T00:35:56;99926.56;;;-0.64;100.00
30897;BME280;64229;52.246;21.054;2023-11-21T00:38:21;99926.94;;;-0.67;100.00
30897;BME280;64229;52.246;21.054;2023-11-21T00:40:47;99934.63;;;-0.45;100.00
30897;BME280;64229;52.246;21.054;2023-11-21T00:43:12;99921.69;;;-0.67;100.00
30897;BME280;64229;52.246;21.054;2023-11-21T00:45:37;99931.78;;;-0.70;100.00
30897;BME280;64229;52.246;21.054;2023-11-21T00:48:03;99926.31;;;-0.75;100.00
30897;BME280;64229;52.246;21.054;2023-11-21T00:50:30;99931.16;;;-0.79;100.00
30897;BME280;64229;52.246;21.054;2023-11-21T00:52:55;99934.97;;;-0.75;100.00
30897;BME280;64229;52.246;21.054;2023-11-21T00:55:21;99929.97;;;-0.70;100.00
30897;BME280;64229;52.246;21.054;2023-11-21T00:57:46;99930.16;;;-0.71;100.00
30897;BME280;64229;52.246;21.054;2023-11-21T01:00:12;99930.56;;;-0.68;100.00
30897;BME280;64229;52.246;21.054;2023-11-21T01:02:42;99929.34;;;-0.65;100.00
30897;BME280;64229;52.246;21.054;2023-11-21T01:05:08;99930.75;;;-0.76;100.00
30897;BME280;64229;52.246;21.054;2023-11-21T01:07:34;99936.41;;;-0.72;100.00
30897;BME280;64229;52.246;21.054;2023-11-21T01:09:59;99941.88;;;-0.74;100.00
30897;BME280;64229;52.246;21.054;2023-11-21T01:12:24;99935.59;;;-0.79;100.00
30897;BME280;64229;52.246;21.054;2023-11-21T01:14:50;99936.59;;;-0.80;100.00
30897;BME280;64229;52.246;21.054;2023-11-21T01:17:16;99939.56;;;-0.97;100.00
30897;BME280;64229;52.246;21.054;2023-11-21T01:19:42;99946.63;;;-0.97;100.00
30897;BME280;64229;52.246;21.054;2023-11-21T01:22:07;99943.03;;;-0.76;100.00
30897;BME280;64229;52.246;21.054;2023-11-21T01:24:33;99950.47;;;-0.87;100.00
30897;BME280;64229;52.246;21.054;2023-11-21T01:26:59;99949.69;;;-0.94;100.00
30897;BME280;64229;52.246;21.054;2023-11-21T01:29:24;99953.69;;;-0.98;100.00
30897;BME280;64229;52.246;21.054;2023-11-21T01:31:49;99953.31;;;-0.88;100.00
30897;BME280;64229;52.246;21.054;2023-11-21T01:34:15;99953.28;;;-1.01;100.00
30897;BME280;64229;52.246;21.054;2023-11-21T01:36:40;99940.97;;;-1.01;100.00
30897;BME280;64229;52.246;21.054;2023-11-21T01:39:05;99963.97;;;-0.90;100.00
30897;BME280;64229;52.246;21.054;2023-11-21T01:41:34;99964.63;;;-0.81;100.00
30897;BME280;64229;52.246;21.054;2023-11-21T01:44:00;99953.94;;;-0.66;100.00
30897;BME280;64229;52.246;21.054;2023-11-21T01:46:26;99955.19;;;-0.62;100.00
30897;BME280;64229;52.246;21.054;2023-11-21T01:48:52;99958.16;;;-0.78;100.00
30897;BME280;64229;52.246;21.054;2023-11-21T01:51:19;99961.38;;;-0.76;100.00
30897;BME280;64229;52.246;21.054;2023-11-21T01:53:44;99965.25;;;-0.66;100.00
30897;BME280;64229;52.246;21.054;2023-11-21T01:56:12;99963.41;;;-0.78;100.00
30897;BME280;64229;52.246;21.054;2023-11-21T01:58:39;99960.34;;;-0.89;100.00
30897;BME280;64229;52.246;21.054;2023-11-21T02:01:04;99959.34;;;-0.94;100.00
30897;BME280;64229;52.246;21.054;2023-11-21T02:03:30;99948.25;;;-0.96;100.00
30897;BME280;64229;52.246;21.054;2023-11-21T02:05:56;99957.56;;;-0.80;100.00
30897;BME280;64229;52.246;21.054;2023-11-21T02:08:21;99958.16;;;-0.85;100.00
30897;BME280;64229;52.246;21.054;2023-11-21T02:10:47;99946.03;;;-0.99;100.00
30897;BME280;64229;52.246;21.054;2023-11-21T02:13:13;99961.56;;;-0.91;100.00
30897;BME280;64229;52.246;21.054;2023-11-21T02:15:38;99970.22;;;-0.91;100.00
30897;BME280;64229;52.246;21.054;2023-11-21T02:18:04;99970.03;;;-0.89;100.00
30897;BME280;64229;52.246;21.054;2023-11-21T02:20:31;99971.41;;;-1.00;100.00
30897;BME280;64229;52.246;21.054;2023-11-21T02:23:00;99974.84;;;-0.99;100.00
30897;BME280;64229;52.246;21.054;2023-11-21T02:25:26;99972.22;;;-0.99;100.00
30897;BME280;64229;52.246;21.054;2023-11-21T02:27:55;99985.56;;;-0.94;100.00
30897;BME280;64229;52.246;21.054;2023-11-21T02:30:21;99981.50;;;-0.97;100.00
30897;BME280;64229;52.246;21.054;2023-11-21T02:32:50;99973.44;;;-1.02;100.00
30897;BME280;64229;52.246;21.054;2023-11-21T02:35:18;99979.47;;;-1.01;100.00
30897;BME280;64229;52.246;21.054;2023-11-21T02:37:44;99980.50;;;-0.96;100.00
30897;BME280;64229;52.246;21.054;2023-11-21T02:40:10;99979.06;;;-1.05;100.00
30897;BME280;64229;52.246;21.054;2023-11-21T02:42:38;99984.91;;;-0.96;100.00
30897;BME280;64229;52.246;21.054;2023-11-21T02:45:03;99976.09;;;-0.89;100.00
30897;BME280;64229;52.246;21.054;2023-11-21T02:47:30;99973.84;;;-1.05;100.00
30897;BME280;64229;52.246;21.054;2023-11-21T02:49:56;99982.69;;;-0.99;100.00
30897;BME280;64229;52.246;21.054;2023-11-21T02:52:21;99988.75;;;-1.05;100.00
30897;BME280;64229;52.246;21.054;2023-11-21T02:54:46;99989.16;;;-1.02;100.00
30897;BME280;64229;52.246;21.054;2023-11-21T02:57:12;99985.06;;;-1.11;100.00
30897;BME280;64229;52.246;21.054;2023-11-21T02:59:38;99989.72;;;-1.06;100.00
30897;BME280;64229;52.246;21.054;2023-11-21T03:02:03;99983.25;;;-1.10;100.00
30897;BME280;64229;52.246;21.054;2023-11-21T03:04:29;99985.06;;;-1.11;100.00
30897;BME280;64229;52.246;21.054;2023-11-21T03:06:54;99991.34;;;-1.05;100.00
30897;BME280;64229;52.246;21.054;2023-11-21T03:09:20;99984.28;;;-1.11;100.00
30897;BME280;64229;52.246;21.054;2023-11-21T03:11:45;99994.94;;;-1.06;100.00
30897;BME280;64229;52.246;21.054;2023-11-21T03:14:10;99997.78;;;-1.08;100.00
30897;BME280;64229;52.246;21.054;2023-11-21T03:16:36;99998.84;;;-0.96;100.00
30897;BME280;64229;52.246;21.054;2023-11-21T03:19:03;100000.63;;;-0.96;100.00
30897;BME280;64229;52.246;21.054;2023-11-21T03:21:28;99996.81;;;-1.00;100.00
30897;BME280;64229;52.246;21.054;2023-11-21T03:23:54;100002.00;;;-1.07;100.00
30897;BME280;64229;52.246;21.054;2023-11-21T03:26:20;100000.03;;;-1.05;100.00
30897;BME280;64229;52.246;21.054;2023-11-21T03:28:45;100005.44;;;-1.06;100.00
30897;BME280;64229;52.246;21.054;2023-11-21T03:31:11;100007.44;;;-1.08;100.00
30897;BME280;64229;52.246;21.054;2023-11-21T03:33:36;99996.97;;;-1.15;100.00
30897;BME280;64229;52.246;21.054;2023-11-21T03:36:02;100012.88;;;-1.17;100.00
30897;BME280;64229;52.246;21.054;2023-11-21T03:38:29;100010.84;;;-1.14;100.00
30897;BME280;64229;52.246;21.054;2023-11-21T03:40:54;100008.19;;;-1.21;100.00
30897;BME280;64229;52.246;21.054;2023-11-21T03:43:19;100014.66;;;-1.17;100.00
30897;BME280;64229;52.246;21.054;2023-11-21T03:45:45;100011.47;;;-1.12;100.00
30897;BME280;64229;52.246;21.054;2023-11-21T03:48:12;100011.06;;;-1.16;100.00
30897;BME280;64229;52.246;21.054;2023-11-21T03:50:37;100012.69;;;-1.08;100.00
30897;BME280;64229;52.246;21.054;2023-11-21T03:53:02;100015.91;;;-1.13;100.00
30897;BME280;64229;52.246;21.054;2023-11-21T03:55:29;100025.31;;;-1.25;100.00
30897;BME280;64229;52.246;21.054;2023-11-21T03:57:56;100027.94;;;-1.25;100.00
30897;BME280;64229;52.246;21.054;2023-11-21T04:00:22;100036.78;;;-1.26;100.00
30897;BME280;64229;52.246;21.054;2023-11-21T04:02:47;100029.31;;;-1.29;100.00
30897;BME280;64229;52.246;21.054;2023-11-21T04:05:13;100038.16;;;-1.30;100.00
30897;BME280;64229;52.246;21.054;2023-11-21T04:07:38;100019.13;;;-1.52;100.00
30897;BME280;64229;52.246;21.054;2023-11-21T04:10:05;100042.56;;;-1.37;100.00
30897;BME280;64229;52.246;21.054;2023-11-21T04:12:32;100040.94;;;-1.38;100.00
30897;BME280;64229;52.246;21.054;2023-11-21T04:14:58;100034.09;;;-1.39;100.00
30897;BME280;64229;52.246;21.054;2023-11-21T04:17:23;100034.28;;;-1.41;100.00
30897;BME280;64229;52.246;21.054;2023-11-21T04:19:49;100043.94;;;-1.41;100.00
30897;BME280;64229;52.246;21.054;2023-11-21T04:22:14;100042.75;;;-1.39;100.00
30897;BME280;64229;52.246;21.054;2023-11-21T04:24:39;100041.53;;;-1.43;100.00
30897;BME280;64229;52.246;21.054;2023-11-21T04:27:05;100052.25;;;-1.38;100.00
30897;BME280;64229;52.246;21.054;2023-11-21T04:29:30;100045.56;;;-1.40;100.00
30897;BME280;64229;52.246;21.054;2023-11-21T04:31:55;100033.19;;;-1.53;100.00
30897;BME280;64229;52.246;21.054;2023-11-21T04:34:21;100048.44;;;-1.29;100.00
30897;BME280;64229;52.246;21.054;2023-11-21T04:36:46;100041.56;;;-1.36;100.00
30897;BME280;64229;52.246;21.054;2023-11-21T04:39:11;100049.38;;;-1.43;100.00
30897;BME280;64229;52.246;21.054;2023-11-21T04:41:37;100054.94;;;-1.53;100.00
30897;BME280;64229;52.246;21.054;2023-11-21T04:44:05;100059.22;;;-1.45;100.00
30897;BME280;64229;52.246;21.054;2023-11-21T04:46:31;100051.53;;;-1.53;100.00
30897;BME280;64229;52.246;21.054;2023-11-21T04:48:57;100066.84;;;-1.50;100.00
30897;BME280;64229;52.246;21.054;2023-11-21T04:51:23;100074.31;;;-1.47;100.00
30897;BME280;64229;52.246;21.054;2023-11-21T04:53:48;100072.47;;;-1.53;100.00
30897;BME280;64229;52.246;21.054;2023-11-21T04:56:14;100075.47;;;-1.56;100.00
30897;BME280;64229;52.246;21.054;2023-11-21T04:58:39;100069.97;;;-1.61;100.00
30897;BME280;64229;52.246;21.054;2023-11-21T05:01:05;100083.34;;;-1.50;100.00
30897;BME280;64229;52.246;21.054;2023-11-21T05:03:32;100080.19;;;-1.38;100.00
30897;BME280;64229;52.246;21.054;2023-11-21T05:05:57;100061.94;;;-1.60;100.00
30897;BME280;64229;52.246;21.054;2023-11-21T05:08:23;100085.03;;;-1.42;100.00
30897;BME280;64229;52.246;21.054;2023-11-21T05:10:48;100070.72;;;-1.46;100.00
30897;BME280;64229;52.246;21.054;2023-11-21T05:13:14;100087.50;;;-1.34;100.00
30897;BME280;64229;52.246;21.054;2023-11-21T05:15:43;100087.88;;;-1.37;100.00
30897;BME280;64229;52.246;21.054;2023-11-21T05:18:09;100089.06;;;-1.39;100.00
30897;BME280;64229;52.246;21.054;2023-11-21T05:20:35;100098.72;;;-1.40;100.00
30897;BME280;64229;52.246;21.054;2023-11-21T05:23:00;100091.69;;;-1.39;100.00
30897;BME280;64229;52.246;21.054;2023-11-21T05:25:26;100085.22;;;-1.43;100.00
30897;BME280;64229;52.246;21.054;2023-11-21T05:27:51;100093.13;;;-1.37;100.00
30897;BME280;64229;52.246;21.054;2023-11-21T05:30:18;100097.97;;;-1.34;100.00
30897;BME280;64229;52.246;21.054;2023-11-21T05:32:43;100110.00;;;-1.39;100.00
30897;BME280;64229;52.246;21.054;2023-11-21T05:35:09;100096.56;;;-1.36;100.00
30897;BME280;64229;52.246;21.054;2023-11-21T05:37:37;100101.53;;;-1.41;100.00
30897;BME280;64229;52.246;21.054;2023-11-21T05:40:06;100098.88;;;-1.48;100.00
30897;BME280;64229;52.246;21.054;2023-11-21T05:42:32;100116.22;;;-1.47;100.00
30897;BME280;64229;52.246;21.054;2023-11-21T05:44:57;100117.84;;;-1.39;100.00
30897;BME280;64229;52.246;21.054;2023-11-21T05:47:24;100120.66;;;-1.41;100.00
30897;BME280;64229;52.246;21.054;2023-11-21T05:49:51;100121.72;;;-1.35;100.00
30897;BME280;64229;52.246;21.054;2023-11-21T05:52:17;100123.53;;;-1.36;100.00
30897;BME280;64229;52.246;21.054;2023-11-21T05:54:42;100125.97;;;-1.34;100.00
30897;BME280;64229;52.246;21.054;2023-11-21T05:57:08;100129.31;;;-1.40;100.00
30897;BME280;64229;52.246;21.054;2023-11-21T05:59:34;100125.38;;;-1.30;100.00
30897;BME280;64229;52.246;21.054;2023-11-21T06:01:59;100138.09;;;-1.27;100.00
30897;BME280;64229;52.246;21.054;2023-11-21T06:04:25;100141.91;;;-1.29;100.00
30897;BME280;64229;52.246;21.054;2023-11-21T06:06:51;100140.06;;;-1.35;100.00
30897;BME280;64229;52.246;21.054;2023-11-21T06:09:17;100148.72;;;-1.35;100.00
30897;BME280;64229;52.246;21.054;2023-11-21T06:11:43;100142.47;;;-1.34;100.00
30897;BME280;64229;52.246;21.054;2023-11-21T06:14:08;100137.16;;;-1.47;100.00
30897;BME280;64229;52.246;21.054;2023-11-21T06:16:34;100136.47;;;-1.56;100.00
30897;BME280;64229;52.246;21.054;2023-11-21T06:19:00;100156.28;;;-1.47;100.00
30897;BME280;64229;52.246;21.054;2023-11-21T06:21:26;100157.72;;;-1.44;100.00
30897;BME280;64229;52.246;21.054;2023-11-21T06:23:51;100157.38;;;-1.34;100.00
30897;BME280;64229;52.246;21.054;2023-11-21T06:26:18;100158.56;;;-1.37;100.00
30897;BME280;64229;52.246;21.054;2023-11-21T06:28:44;100159.81;;;-1.33;100.00
30897;BME280;64229;52.246;21.054;2023-11-21T06:31:09;100160.19;;;-1.36;100.00
30897;BME280;64229;52.246;21.054;2023-11-21T06:33:36;100164.63;;;-1.36;100.00
30897;BME280;64229;52.246;21.054;2023-11-21T06:36:01;100172.47;;;-1.36;100.00
30897;BME280;64229;52.246;21.054;2023-11-21T06:38:31;100159.75;;;-1.39;100.00
30897;BME280;64229;52.246;21.054;2023-11-21T06:40:57;100166.84;;;-1.33;100.00
30897;BME280;64229;52.246;21.054;2023-11-21T06:43:23;100170.66;;;-1.36;100.00
30897;BME280;64229;52.246;21.054;2023-11-21T06:45:48;100177.50;;;-1.35;100.00
30897;BME280;64229;52.246;21.054;2023-11-21T06:48:14;100183.69;;;-1.42;100.00
30897;BME280;64229;52.246;21.054;2023-11-21T06:50:40;100177.25;;;-1.40;100.00
30897;BME280;64229;52.246;21.054;2023-11-21T06:53:05;100187.00;;;-1.34;100.00
30897;BME280;64229;52.246;21.054;2023-11-21T06:55:32;100190.13;;;-1.45;100.00
30897;BME280;64229;52.246;21.054;2023-11-21T06:57:58;100192.34;;;-1.42;100.00
30897;BME280;64229;52.246;21.054;2023-11-21T07:00:25;100181.66;;;-1.47;100.00
30897;BME280;64229;52.246;21.054;2023-11-21T07:02:53;100194.97;;;-1.42;100.00
30897;BME280;64229;52.246;21.054;2023-11-21T07:05:18;100204.81;;;-1.44;100.00
30897;BME280;64229;52.246;21.054;2023-11-21T07:07:46;100203.69;;;-1.35;100.00
30897;BME280;64229;52.246;21.054;2023-11-21T07:10:11;100205.06;;;-1.39;100.00
30897;BME280;64229;52.246;21.054;2023-11-21T07:12:37;100206.13;;;-1.33;100.00
30897;BME280;64229;52.246;21.054;2023-11-21T07:15:03;100215.19;;;-1.36;100.00
30897;BME280;64229;52.246;21.054;2023-11-21T07:17:31;100199.28;;;-1.56;100.00
30897;BME280;64229;52.246;21.054;2023-11-21T07:19:56;100210.75;;;-1.35;100.00
30897;BME280;64229;52.246;21.054;2023-11-21T07:22:22;100212.91;;;-1.39;100.00
30897;BME280;64229;52.246;21.054;2023-11-21T07:24:50;100198.97;;;-1.46;100.00
30897;BME280;64229;52.246;21.054;2023-11-21T07:27:18;100215.50;;;-1.18;100.00
30897;BME280;64229;52.246;21.054;2023-11-21T07:29:44;100201.09;;;-1.35;100.00
30897;BME280;64229;52.246;21.054;2023-11-21T07:32:10;100225.94;;;-1.24;100.00
30897;BME280;64229;52.246;21.054;2023-11-21T07:34:36;100220.63;;;-1.31;100.00
30897;BME280;64229;52.246;21.054;2023-11-21T07:37:02;100216.19;;;-1.37;100.00
30897;BME280;64229;52.246;21.054;2023-11-21T07:39:27;100213.28;;;-1.42;100.00
30897;BME280;64229;52.246;21.054;2023-11-21T07:41:53;100229.50;;;-1.32;100.00
30897;BME280;64229;52.246;21.054;2023-11-21T07:44:19;100215.78;;;-1.34;100.00
30897;BME280;64229;52.246;21.054;2023-11-21T07:46:45;100235.59;;;-1.25;100.00
30897;BME280;64229;52.246;21.054;2023-11-21T07:49:11;100230.31;;;-1.31;100.00
30897;BME280;64229;52.246;21.054;2023-11-21T07:51:36;100231.50;;;-1.34;100.00
30897;BME280;64229;52.246;21.054;2023-11-21T07:54:02;100227.25;;;-1.35;100.00
30897;BME280;64229;52.246;21.054;2023-11-21T07:56:27;100231.91;;;-1.30;100.00
30897;BME280;64229;52.246;21.054;2023-11-21T07:58:52;100229.56;;;-1.25;100.00
30897;BME280;64229;52.246;21.054;2023-11-21T08:01:18;100230.72;;;-1.28;100.00
30897;BME280;64229;52.246;21.054;2023-11-21T08:03:44;100227.13;;;-1.27;100.00
30897;BME280;64229;52.246;21.054;2023-11-21T08:06:09;100238.13;;;-1.10;100.00
30897;BME280;64229;52.246;21.054;2023-11-21T08:08:34;100226.97;;;-1.19;100.00
30897;BME280;64229;52.246;21.054;2023-11-21T08:11:00;100241.13;;;-1.13;100.00
30897;BME280;64229;52.246;21.054;2023-11-21T08:13:28;100240.13;;;-1.12;100.00
30897;BME280;64229;52.246;21.054;2023-11-21T08:15:54;100241.56;;;-1.09;100.00
30897;BME280;64229;52.246;21.054;2023-11-21T08:18:21;100216.16;;;-1.15;100.00
30897;BME280;64229;52.246;21.054;2023-11-21T08:20:46;100251.53;;;-0.98;100.00
30897;BME280;64229;52.246;21.054;2023-11-21T08:23:15;100248.72;;;-0.97;100.00
30897;BME280;64229;52.246;21.054;2023-11-21T08:25:44;100262.25;;;-0.93;100.00
30897;BME280;64229;52.246;21.054;2023-11-21T08:28:09;100256.16;;;-1.00;100.00
30897;BME280;64229;52.246;21.054;2023-11-21T08:30:35;100259.34;;;-1.05;100.00
30897;BME280;64229;52.246;21.054;2023-11-21T08:33:00;100255.84;;;-1.12;100.00
30897;BME280;64229;52.246;21.054;2023-11-21T08:35:26;100267.75;;;-1.09;100.00
30897;BME280;64229;52.246;21.054;2023-11-21T08:37:52;100268.75;;;-1.10;100.00
30897;BME280;64229;52.246;21.054;2023-11-21T08:40:20;100271.56;;;-1.12;100.00
30897;BME280;64229;52.246;21.054;2023-11-21T08:42:46;100267.53;;;-1.14;100.00
30897;BME280;64229;52.246;21.054;2023-11-21T08:45:13;100277.19;;;-1.15;100.00
30897;BME280;64229;52.246;21.054;2023-11-21T08:47:39;100276.53;;;-1.17;100.00
30897;BME280;64229;52.246;21.054;2023-11-21T08:50:08;100278.75;;;-1.21;100.00
30897;BME280;64229;52.246;21.054;2023-11-21T08:52:34;100274.50;;;-1.22;100.00
30897;BME280;64229;52.246;21.054;2023-11-21T08:55:00;100273.88;;;-1.24;100.00
30897;BME280;64229;52.246;21.054;2023-11-21T08:57:35;100276.75;;;-1.19;100.00
30897;BME280;64229;52.246;21.054;2023-11-21T09:00:02;100286.66;;;-1.14;100.00
30897;BME280;64229;52.246;21.054;2023-11-21T09:02:28;100293.09;;;-1.17;100.00
30897;BME280;64229;52.246;21.054;2023-11-21T09:04:53;100289.91;;;-1.12;100.00
30897;BME280;64229;52.246;21.054;2023-11-21T09:07:19;100287.72;;;-1.08;100.00
30897;BME280;64229;52.246;21.054;2023-11-21T09:09:46;100293.41;;;-1.05;100.00
30897;BME280;64229;52.246;21.054;2023-11-21T09:12:11;100290.59;;;-1.03;100.00
30897;BME280;64229;52.246;21.054;2023-11-21T09:14:37;100300.50;;;-0.99;100.00
30897;BME280;64229;52.246;21.054;2023-11-21T09:17:03;100290.00;;;-0.99;100.00
30897;BME280;64229;52.246;21.054;2023-11-21T09:19:28;100298.94;;;-0.93;100.00
30897;BME280;64229;52.246;21.054;2023-11-21T09:21:54;100303.91;;;-0.98;100.00
30897;BME280;64229;52.246;21.054;2023-11-21T09:24:19;100307.53;;;-0.99;100.00
30897;BME280;64229;52.246;21.054;2023-11-21T09:26:44;100308.53;;;-1.00;100.00
30897;BME280;64229;52.246;21.054;2023-11-21T09:29:10;100302.91;;;-0.97;100.00
30897;BME280;64229;52.246;21.054;2023-11-21T09:31:35;100305.41;;;-0.89;100.00
30897;BME280;64229;52.246;21.054;2023-11-21T09:34:01;100306.09;;;-0.80;100.00
30897;BME280;64229;52.246;21.054;2023-11-21T09:36:27;100313.22;;;-0.68;100.00
30897;BME280;64229;52.246;21.054;2023-11-21T09:38:55;100315.84;;;-0.68;100.00
30897;BME280;64229;52.246;21.054;2023-11-21T09:41:25;100311.22;;;-0.66;100.00
30897;BME280;64229;52.246;21.054;2023-11-21T09:43:56;100306.47;;;-0.55;100.00
30897;BME280;64229;52.246;21.054;2023-11-21T09:46:25;100309.47;;;-0.59;100.00
30897;BME280;64229;52.246;21.054;2023-11-21T09:48:51;100288.63;;;-0.67;100.00
30897;BME280;64229;52.246;21.054;2023-11-21T09:51:22;100301.41;;;-0.57;100.00
30897;BME280;64229;52.246;21.054;2023-11-21T09:53:55;100304.84;;;-0.56;100.00
30897;BME280;64229;52.246;21.054;2023-11-21T09:56:23;100309.31;;;-0.50;100.00
30897;BME280;64229;52.246;21.054;2023-11-21T09:58:53;100305.28;;;-0.53;100.00
30897;BME280;64229;52.246;21.054;2023-11-21T10:01:19;100313.50;;;-0.56;100.00
30897;BME280;64229;52.246;21.054;2023-11-21T10:03:46;100311.91;;;-0.57;100.00
30897;BME280;64229;52.246;21.054;2023-11-21T10:06:13;100318.34;;;-0.60;100.00
30897;BME280;64229;52.246;21.054;2023-11-21T10:08:39;100326.81;;;-0.57;100.00
30897;BME280;64229;52.246;21.054;2023-11-21T10:11:07;100312.47;;;-0.62;100.00
30897;BME280;64229;52.246;21.054;2023-11-21T10:13:37;100318.53;;;-0.61;100.00
30897;BME280;64229;52.246;21.054;2023-11-21T10:16:04;100330.31;;;-0.50;100.00
30897;BME280;64229;52.246;21.054;2023-11-21T10:18:32;100332.47;;;-0.54;100.00
30897;BME280;64229;52.246;21.054;2023-11-21T10:20:59;100321.56;;;-0.57;100.00
30897;BME280;64229;52.246;21.054;2023-11-21T10:23:25;100325.00;;;-0.57;100.00
30897;BME280;64229;52.246;21.054;2023-11-21T10:25:51;100324.97;;;-0.64;100.00
30897;BME280;64229;52.246;21.054;2023-11-21T10:28:17;100323.19;;;-0.56;100.00
30897;BME280;64229;52.246;21.054;2023-11-21T10:30:42;100330.84;;;-0.62;100.00
30897;BME280;64229;52.246;21.054;2023-11-21T10:33:09;100331.44;;;-0.60;100.00
30897;BME280;64229;52.246;21.054;2023-11-21T10:35:48;100326.00;;;-0.58;100.00
30897;BME280;64229;52.246;21.054;2023-11-21T10:38:20;100329.81;;;-0.61;100.00
30897;BME280;64229;52.246;21.054;2023-11-21T10:40:50;100329.03;;;-0.61;100.00
30897;BME280;64229;52.246;21.054;2023-11-21T10:43:16;100312.00;;;-0.72;100.00
30897;BME280;64229;52.246;21.054;2023-11-21T10:45:42;100329.38;;;-0.64;100.00
30897;BME280;64229;52.246;21.054;2023-11-21T10:48:09;100337.44;;;-0.66;100.00
30897;BME280;64229;52.246;21.054;2023-11-21T10:50:40;100331.78;;;-0.69;100.00
30897;BME280;64229;52.246;21.054;2023-11-21T10:53:06;100331.38;;;-0.66;100.00
30897;BME280;64229;52.246;21.054;2023-11-21T10:55:32;100344.13;;;-0.63;100.00
30897;BME280;64229;52.246;21.054;2023-11-21T10:57:59;100342.75;;;-0.59;100.00
30897;BME280;64229;52.246;21.054;2023-11-21T11:00:26;100338.91;;;-0.56;100.00
30897;BME280;64229;52.246;21.054;2023-11-21T11:02:52;100346.78;;;-0.56;100.00
30897;BME280;64229;52.246;21.054;2023-11-21T11:05:20;100340.31;;;-0.61;100.00
30897;BME280;64229;52.246;21.054;2023-11-21T11:08:04;100355.16;;;-0.68;100.00
30897;BME280;64229;52.246;21.054;2023-11-21T11:10:31;100348.09;;;-0.74;100.00
30897;BME280;64229;52.246;21.054;2023-11-21T11:12:57;100350.50;;;-0.72;100.00
30897;BME280;64229;52.246;21.054;2023-11-21T11:15:24;100349.50;;;-0.71;100.00
30897;BME280;64229;52.246;21.054;2023-11-21T11:17:49;100352.31;;;-0.73;100.00
30897;BME280;64229;52.246;21.054;2023-11-21T11:20:16;100344.25;;;-0.71;100.00
30897;BME280;64229;52.246;21.054;2023-11-21T11:26:01;100352.31;;;-0.73;100.00
30897;BME280;64229;52.246;21.054;2023-11-21T11:29:08;100358.56;;;-0.74;100.00
30897;BME280;64229;52.246;21.054;2023-11-21T11:32:07;100358.72;;;-0.75;100.00
30897;BME280;64229;52.246;21.054;2023-11-21T11:34:37;100361.66;;;-0.64;100.00
30897;BME280;64229;52.246;21.054;2023-11-21T11:37:07;100350.50;;;-0.72;100.00
30897;BME280;64229;52.246;21.054;2023-11-21T11:42:03;100359.19;;;-0.72;100.00
30897;BME280;64229;52.246;21.054;2023-11-21T11:52:40;100353.13;;;-0.72;100.00
30897;BME280;64229;52.246;21.054;2023-11-21T11:55:09;100358.72;;;-0.75;100.00
30897;BME280;64229;52.246;21.054;2023-11-21T11:57:35;100355.78;;;-0.66;100.00
30897;BME280;64229;52.246;21.054;2023-11-21T12:02:35;100367.66;;;-0.70;100.00
30897;BME280;64229;52.246;21.054;2023-11-21T12:05:10;100367.25;;;-0.73;100.00
30897;BME280;64229;52.246;21.054;2023-11-21T12:07:42;100371.22;;;-0.77;100.00
30897;BME280;64229;52.246;21.054;2023-11-21T12:10:08;100359.50;;;-0.81;100.00
30897;BME280;64229;52.246;21.054;2023-11-21T12:12:36;100367.25;;;-0.73;100.00
30897;BME280;64229;52.246;21.054;2023-11-21T12:15:04;100368.84;;;-0.72;100.00
30897;BME280;64229;52.246;21.054;2023-11-21T12:17:30;100379.28;;;-0.79;100.00
30897;BME280;64229;52.246;21.054;2023-11-21T12:20:02;100378.56;;;-0.66;100.00
30897;BME280;64229;52.246;21.054;2023-11-21T12:22:29;100380.75;;;-0.70;100.00
30897;BME280;64229;52.246;21.054;2023-11-21T12:24:55;100380.75;;;-0.70;100.00
30897;BME280;64229;52.246;21.054;2023-11-21T12:27:21;100380.75;;;-0.70;100.00
30897;BME280;64229;52.246;21.054;2023-11-21T12:29:46;100384.63;;;-0.66;100.00
30897;BME280;64229;52.246;21.054;2023-11-21T12:32:12;100384.59;;;-0.72;100.00
30897;BME280;64229;52.246;21.054;2023-11-21T12:34:38;100386.75;;;-0.76;100.00
30897;BME280;64229;52.246;21.054;2023-11-21T12:37:04;100395.41;;;-0.75;100.00
30897;BME280;64229;52.246;21.054;2023-11-21T12:39:29;100400.84;;;-0.77;100.00
30897;BME280;64229;52.246;21.054;2023-11-21T12:41:55;100388.94;;;-0.79;100.00
30897;BME280;64229;52.246;21.054;2023-11-21T12:44:21;100405.09;;;-0.76;100.00
30897;BME280;64229;52.246;21.054;2023-11-21T12:46:49;100378.84;;;-0.82;100.00